Time;durP1;ratioP1;P1;durP2;ratioP2;P2;SDS_P1;SDS_P2;PMS_P1;PMS_P2;Temp;Humidity;BMP_temperature;BMP_pressure;BME280_temperature;BME280_humidity;BME280_pressure;Samples;Min_cycle;Max_cycle;Signal;HPM_P1;HPM_P2
2023/04/26 00:02:23;;;;;;;3.97;2.88;;;11.70;99.90;;;;;;5052372;28;20035;-41
2023/04/26 00:04:56;;;;;;;7.15;3.20;;;11.70;99.90;;;;;;5053125;28;20167;-43
2023/04/26 00:07:27;;;;;;;4.80;3.30;;;11.70;99.90;;;;;;5051956;28;20017;-43
2023/04/26 00:09:53;;;;;;;5.82;3.53;;;11.70;99.90;;;;;;5052626;28;20478;-43
2023/04/26 00:12:19;;;;;;;6.80;3.42;;;11.80;99.90;;;;;;5052339;28;20068;-43
2023/04/26 00:14:44;;;;;;;4.60;3.13;;;11.70;99.90;;;;;;5052367;28;20106;-43
2023/04/26 00:17:10;;;;;;;5.13;3.10;;;11.70;99.90;;;;;;5051941;28;20142;-43
2023/04/26 00:19:36;;;;;;;4.75;2.95;;;11.70;99.90;;;;;;5052263;28;20025;-42
2023/04/26 00:22:01;;;;;;;6.07;3.10;;;11.70;99.90;;;;;;5053160;28;20033;-43
2023/04/26 00:24:27;;;;;;;5.85;3.40;;;11.70;99.90;;;;;;5051699;28;20025;-43
2023/04/26 00:26:56;;;;;;;6.13;3.30;;;11.70;99.90;;;;;;5052684;28;20043;-42
2023/04/26 00:29:22;;;;;;;5.32;3.55;;;11.70;99.90;;;;;;5053837;28;20021;-43
2023/04/26 00:31:47;;;;;;;9.55;3.22;;;11.70;99.90;;;;;;5053015;28;20035;-43
2023/04/26 00:34:13;;;;;;;5.93;3.30;;;11.70;99.90;;;;;;5053089;28;20036;-43
2023/04/26 00:36:38;;;;;;;7.18;3.30;;;11.70;99.90;;;;;;5051423;28;20471;-44
2023/04/26 00:39:04;;;;;;;5.93;3.22;;;11.70;99.90;;;;;;5052108;28;20029;-43
2023/04/26 00:41:30;;;;;;;6.18;3.65;;;11.70;99.90;;;;;;5051985;28;20479;-43
2023/04/26 00:43:55;;;;;;;5.53;3.30;;;11.70;99.90;;;;;;5052057;28;20048;-43
2023/04/26 00:46:21;;;;;;;5.53;3.30;;;11.70;99.90;;;;;;5052571;28;20025;-43
2023/04/26 00:48:47;;;;;;;3.42;2.85;;;11.70;99.90;;;;;;5052791;28;20021;-42
2023/04/26 00:51:14;;;;;;;6.68;3.17;;;11.70;99.90;;;;;;5052650;28;20501;-43
2023/04/26 00:53:41;;;;;;;5.93;3.40;;;11.70;99.90;;;;;;5052374;28;20029;-43
2023/04/26 00:56:08;;;;;;;4.88;2.85;;;11.70;99.90;;;;;;5051646;28;20064;-43
2023/04/26 00:58:35;;;;;;;5.50;3.20;;;11.70;99.90;;;;;;5052376;28;20036;-41
2023/04/26 01:01:01;;;;;;;4.60;2.92;;;11.70;99.90;;;;;;5052417;28;20037;-43
2023/04/26 01:03:27;;;;;;;6.07;3.00;;;11.70;99.90;;;;;;5051987;28;20028;-43
2023/04/26 01:05:53;;;;;;;9.43;3.15;;;11.70;99.90;;;;;;5050785;28;20021;-43
2023/04/26 01:08:19;;;;;;;6.82;2.80;;;11.70;99.90;;;;;;5052758;28;20044;-42
2023/04/26 01:10:49;;;;;;;6.07;3.00;;;11.70;99.90;;;;;;5051735;28;20025;-43
2023/04/26 01:13:15;;;;;;;6.47;3.17;;;11.60;99.90;;;;;;5051486;28;20590;-37
2023/04/26 01:15:45;;;;;;;6.80;3.45;;;11.60;99.90;;;;;;5051823;28;20064;-43
2023/04/26 01:18:13;;;;;;;8.80;3.25;;;11.70;99.90;;;;;;5055352;28;20033;-43
2023/04/26 01:20:39;;;;;;;7.03;3.05;;;11.70;99.90;;;;;;5054236;28;20028;-40
2023/04/26 01:23:05;;;;;;;5.03;2.97;;;11.70;99.90;;;;;;5053639;28;20025;-37
2023/04/26 01:25:31;;;;;;;6.82;3.42;;;11.70;99.90;;;;;;5053811;28;20056;-39
2023/04/26 01:27:57;;;;;;;3.80;2.72;;;11.60;99.90;;;;;;5051299;28;20021;-44
2023/04/26 01:30:22;;;;;;;6.72;2.92;;;11.70;99.90;;;;;;5051058;28;20387;-37
2023/04/26 01:32:48;;;;;;;6.72;2.75;;;11.60;99.90;;;;;;5051292;28;20089;-39
2023/04/26 01:35:14;;;;;;;5.40;3.22;;;11.60;99.90;;;;;;5050191;28;20519;-44
2023/04/26 01:37:39;;;;;;;6.82;2.95;;;11.60;99.90;;;;;;5050490;28;20032;-40
2023/04/26 01:40:06;;;;;;;4.63;2.80;;;11.60;99.90;;;;;;5050916;28;20025;-37
2023/04/26 01:42:32;;;;;;;5.15;3.10;;;11.60;99.90;;;;;;5050886;28;20471;-43
2023/04/26 01:44:57;;;;;;;5.72;3.40;;;11.60;99.90;;;;;;5050852;28;20032;-44
2023/04/26 01:47:25;;;;;;;5.78;2.90;;;11.60;99.90;;;;;;5050323;28;20346;-39
2023/04/26 01:49:51;;;;;;;4.28;3.05;;;11.60;99.90;;;;;;5051388;28;20025;-38
2023/04/26 01:52:16;;;;;;;6.45;2.95;;;11.60;99.90;;;;;;5052326;28;20143;-43
2023/04/26 01:54:42;;;;;;;5.72;2.70;;;11.60;99.90;;;;;;5052154;28;20494;-43
2023/04/26 01:57:08;;;;;;;5.45;2.90;;;11.60;99.90;;;;;;5050440;28;20029;-43
2023/04/26 01:59:33;;;;;;;8.48;2.90;;;11.60;99.90;;;;;;5051930;28;20021;-44
2023/04/26 02:01:59;;;;;;;3.58;2.47;;;11.60;99.90;;;;;;5052019;28;20025;-42
2023/04/26 02:04:25;;;;;;;7.95;2.75;;;11.60;99.90;;;;;;5051459;28;20525;-43
2023/04/26 02:06:50;;;;;;;5.95;2.70;;;11.60;99.90;;;;;;5050586;28;20029;-43
2023/04/26 02:09:17;;;;;;;11.02;3.10;;;11.60;99.90;;;;;;5052042;28;20050;-43
2023/04/26 02:11:43;;;;;;;6.05;2.80;;;11.60;99.90;;;;;;5052274;28;20108;-43
2023/04/26 02:14:08;;;;;;;4.95;2.65;;;11.60;99.90;;;;;;5052823;28;20045;-42
2023/04/26 02:16:34;;;;;;;3.97;2.47;;;11.60;99.90;;;;;;5051907;28;20048;-40
2023/04/26 02:19:00;;;;;;;6.30;2.50;;;11.60;99.90;;;;;;5051256;28;20021;-43
2023/04/26 02:21:27;;;;;;;4.22;2.40;;;11.60;99.90;;;;;;5051320;28;20614;-43
2023/04/26 02:23:53;;;;;;;6.85;2.65;;;11.60;99.90;;;;;;5050998;28;20411;-43
2023/04/26 02:26:18;;;;;;;5.00;2.85;;;11.60;99.90;;;;;;5050930;28;20082;-43
2023/04/26 02:28:44;;;;;;;5.32;2.63;;;11.60;99.90;;;;;;5050903;28;20429;-43
2023/04/26 02:31:10;;;;;;;8.40;2.70;;;11.60;99.90;;;;;;5051219;28;20021;-43
2023/04/26 02:33:35;;;;;;;7.30;2.80;;;11.60;99.90;;;;;;5050783;28;20025;-42
2023/04/26 02:36:04;;;;;;;5.57;2.35;;;11.50;99.90;;;;;;5050091;28;20036;-44
2023/04/26 02:38:29;;;;;;;5.25;2.58;;;11.50;99.90;;;;;;5050503;28;20509;-42
2023/04/26 02:40:59;;;;;;;4.93;2.50;;;11.50;99.90;;;;;;5050864;28;20033;-40
2023/04/26 02:43:25;;;;;;;7.47;2.72;;;11.50;99.90;;;;;;5050077;28;20111;-43
2023/04/26 02:45:50;;;;;;;7.60;2.72;;;11.50;99.90;;;;;;5049817;28;20203;-40
2023/04/26 02:48:16;;;;;;;3.97;2.22;;;11.50;99.90;;;;;;5054908;28;20491;-39
2023/04/26 02:50:42;;;;;;;3.33;2.30;;;11.50;99.90;;;;;;5055596;28;20017;-43
2023/04/26 02:53:07;;;;;;;4.93;2.50;;;11.50;99.90;;;;;;5054891;28;20041;-44
2023/04/26 02:55:33;;;;;;;5.20;2.35;;;11.50;99.90;;;;;;5053666;28;20503;-43
2023/04/26 02:57:58;;;;;;;6.55;2.80;;;11.50;99.90;;;;;;5054390;28;20021;-43
2023/04/26 03:00:25;;;;;;;4.10;2.15;;;11.50;99.90;;;;;;5055304;28;20380;-43
2023/04/26 03:02:51;;;;;;;3.20;2.30;;;11.50;99.90;;;;;;5054451;28;20439;-44
2023/04/26 03:05:18;;;;;;;4.85;2.20;;;11.50;99.90;;;;;;5054674;28;20033;-43
2023/04/26 03:07:45;;;;;;;7.45;2.47;;;11.50;99.90;;;;;;5053063;28;20479;-43
2023/04/26 03:10:10;;;;;;;4.93;2.33;;;11.50;99.90;;;;;;5053707;28;20390;-43
2023/04/26 03:12:36;;;;;;;4.97;2.42;;;11.50;99.90;;;;;;5054043;28;20021;-43
2023/04/26 03:15:02;;;;;;;3.70;2.22;;;11.50;99.90;;;;;;5053553;28;20036;-43
2023/04/26 03:17:28;;;;;;;3.97;2.25;;;11.40;99.90;;;;;;5053070;28;20112;-43
2023/04/26 03:19:54;;;;;;;5.05;2.13;;;11.50;99.90;;;;;;5053948;28;20116;-43
2023/04/26 03:22:20;;;;;;;5.22;2.28;;;11.40;99.90;;;;;;5053256;28;20044;-41
2023/04/26 03:24:46;;;;;;;4.35;2.60;;;11.40;99.90;;;;;;5053447;28;20021;-39
2023/04/26 03:27:12;;;;;;;5.82;2.35;;;11.40;99.90;;;;;;5052506;28;20490;-44
2023/04/26 03:29:38;;;;;;;9.43;2.40;;;11.40;99.90;;;;;;5053657;28;20021;-42
2023/04/26 03:32:04;;;;;;;5.90;2.10;;;11.40;99.90;;;;;;5053195;28;20025;-43
2023/04/26 03:34:30;;;;;;;6.28;2.80;;;11.40;99.90;;;;;;5053025;28;20025;-43
2023/04/26 03:36:56;;;;;;;8.05;2.22;;;11.40;99.90;;;;;;5052715;28;20029;-41
2023/04/26 03:39:22;;;;;;;4.53;1.92;;;11.40;99.90;;;;;;5054247;28;20095;-43
2023/04/26 03:41:47;;;;;;;5.05;2.10;;;11.40;99.90;;;;;;5052966;28;20372;-40
2023/04/26 03:44:14;;;;;;;5.78;2.20;;;11.40;99.90;;;;;;5053058;28;20029;-43
2023/04/26 03:46:39;;;;;;;6.63;2.17;;;11.40;99.90;;;;;;5052284;28;20025;-39
2023/04/26 03:49:05;;;;;;;5.88;2.35;;;11.40;99.90;;;;;;5052850;28;20091;-44
2023/04/26 03:51:31;;;;;;;8.77;2.28;;;11.40;99.90;;;;;;5052751;28;20067;-38
2023/04/26 03:53:58;;;;;;;3.75;2.05;;;11.30;99.90;;;;;;5052709;28;20032;-43
2023/04/26 03:56:23;;;;;;;6.13;1.90;;;11.40;99.90;;;;;;5052520;28;20036;-44
2023/04/26 03:58:49;;;;;;;4.65;2.08;;;11.30;99.90;;;;;;5051913;28;20032;-43
2023/04/26 04:01:15;;;;;;;4.90;2.40;;;11.30;99.90;;;;;;5053095;28;20032;-42
2023/04/26 04:03:40;;;;;;;4.32;2.20;;;11.30;99.90;;;;;;5052480;28;20491;-44
2023/04/26 04:06:06;;;;;;;3.00;1.98;;;11.30;99.90;;;;;;5052240;28;20670;-43
2023/04/26 04:08:32;;;;;;;3.75;2.08;;;11.30;99.90;;;;;;5052277;28;20033;-44
2023/04/26 04:10:58;;;;;;;6.13;2.10;;;11.30;99.90;;;;;;5052514;28;20471;-44
2023/04/26 04:13:24;;;;;;;7.15;2.15;;;11.30;99.90;;;;;;5052351;28;20017;-43
2023/04/26 04:15:50;;;;;;;4.97;2.28;;;11.30;99.90;;;;;;5052142;28;20475;-43
2023/04/26 04:18:16;;;;;;;4.70;2.38;;;11.30;99.90;;;;;;5052699;28;20084;-44
2023/04/26 04:20:42;;;;;;;5.65;1.85;;;11.30;99.90;;;;;;5052241;28;20060;-43
2023/04/26 04:23:08;;;;;;;7.15;2.30;;;11.30;99.90;;;;;;5052177;28;20032;-41
2023/04/26 04:25:34;;;;;;;6.95;1.98;;;11.30;99.90;;;;;;5051976;28;20029;-43
2023/04/26 04:28:03;;;;;;;4.13;2.00;;;11.20;99.90;;;;;;5051611;28;20538;-37
2023/04/26 04:30:29;;;;;;;3.80;2.05;;;11.20;99.90;;;;;;5052292;28;20017;-43
2023/04/26 04:32:58;;;;;;;6.55;2.33;;;11.30;99.90;;;;;;5052818;28;20025;-43
2023/04/26 04:35:27;;;;;;;5.53;2.30;;;11.20;99.90;;;;;;5052278;28;20037;-43
2023/04/26 04:37:55;;;;;;;5.93;2.50;;;11.20;99.90;;;;;;5051516;28;20021;-43
2023/04/26 04:40:21;;;;;;;6.47;2.30;;;11.20;99.90;;;;;;5051897;28;20117;-43
2023/04/26 04:42:46;;;;;;;4.57;2.22;;;11.20;99.90;;;;;;5052050;28;20096;-40
2023/04/26 04:45:13;;;;;;;4.25;2.50;;;11.20;99.90;;;;;;5051849;28;20406;-43
2023/04/26 04:47:39;;;;;;;4.63;2.20;;;11.20;99.90;;;;;;5051296;28;20096;-40
2023/04/26 04:50:05;;;;;;;4.22;2.30;;;11.20;99.90;;;;;;5051833;28;20102;-43
2023/04/26 04:52:32;;;;;;;5.57;2.60;;;11.20;99.90;;;;;;5051336;28;20036;-43
2023/04/26 04:54:58;;;;;;;4.88;2.38;;;11.20;99.90;;;;;;5051781;28;20467;-44
2023/04/26 04:57:24;;;;;;;8.00;3.30;;;11.20;99.90;;;;;;5051214;28;20025;-42
2023/04/26 04:59:50;;;;;;;7.80;3.30;;;11.20;99.90;;;;;;5051790;28;20251;-43
2023/04/26 05:02:15;;;;;;;5.22;3.28;;;11.20;99.90;;;;;;5051238;28;20119;-43
2023/04/26 05:04:41;;;;;;;5.05;3.28;;;11.20;99.90;;;;;;5051387;28;20040;-43
2023/04/26 05:07:07;;;;;;;5.05;3.13;;;11.20;99.90;;;;;;5050680;28;20418;-43
2023/04/26 05:09:32;;;;;;;6.95;3.17;;;11.20;99.90;;;;;;5051212;28;20126;-40
2023/04/26 05:11:58;;;;;;;6.15;3.25;;;11.20;99.90;;;;;;5051282;28;20467;-42
2023/04/26 05:14:23;;;;;;;8.25;3.40;;;11.10;99.90;;;;;;5052104;28;20021;-39
2023/04/26 05:16:49;;;;;;;6.32;3.15;;;11.10;99.90;;;;;;5051464;28;20067;-43
2023/04/26 05:19:15;;;;;;;6.10;2.70;;;11.10;99.90;;;;;;5051295;28;20029;-43
2023/04/26 05:21:41;;;;;;;4.00;2.40;;;11.10;99.90;;;;;;5051728;28;20028;-43
2023/04/26 05:24:06;;;;;;;6.45;3.00;;;11.10;99.90;;;;;;5051133;28;20021;-43
2023/04/26 05:26:34;;;;;;;5.57;2.53;;;11.10;99.90;;;;;;5050568;28;20434;-42
2023/04/26 05:29:00;;;;;;;4.32;2.60;;;11.10;99.90;;;;;;5052223;28;20039;-41
2023/04/26 05:31:26;;;;;;;6.63;2.80;;;11.10;99.90;;;;;;5051659;28;20103;-42
2023/04/26 05:33:51;;;;;;;8.15;2.70;;;11.10;99.90;;;;;;5051064;28;20467;-41
2023/04/26 05:36:17;;;;;;;6.47;3.58;;;11.10;99.90;;;;;;5050601;28;20419;-44
2023/04/26 05:38:43;;;;;;;8.82;4.18;;;11.10;99.90;;;;;;5051027;28;20033;-44
2023/04/26 05:41:08;;;;;;;7.05;3.60;;;11.10;99.90;;;;;;5051344;28;20494;-42
2023/04/26 05:43:34;;;;;;;5.53;3.55;;;11.10;99.90;;;;;;5051141;28;20486;-44
2023/04/26 05:46:00;;;;;;;5.97;2.80;;;11.20;99.90;;;;;;5050593;28;20057;-42
2023/04/26 05:48:26;;;;;;;6.70;3.30;;;11.10;99.90;;;;;;5051481;28;20021;-43
2023/04/26 05:50:52;;;;;;;4.75;2.88;;;11.10;99.90;;;;;;5051075;28;20017;-42
2023/04/26 05:53:18;;;;;;;7.10;3.13;;;11.10;99.90;;;;;;5051083;28;20025;-38
2023/04/26 05:55:44;;;;;;;8.82;3.25;;;11.10;99.90;;;;;;5050353;28;20489;-43
2023/04/26 05:58:10;;;;;;;5.63;3.13;;;11.20;99.90;;;;;;5050576;28;20086;-40
2023/04/26 06:00:37;;;;;;;6.70;3.00;;;11.10;99.90;;;;;;5050657;28;20068;-43
2023/04/26 06:03:03;;;;;;;5.35;2.55;;;11.20;99.90;;;;;;5050700;28;20517;-42
2023/04/26 06:05:30;;;;;;;5.05;2.92;;;11.20;99.90;;;;;;5050941;28;20020;-40
2023/04/26 06:07:56;;;;;;;6.10;2.95;;;11.20;99.90;;;;;;5050476;28;20027;-43
2023/04/26 06:10:21;;;;;;;4.20;2.88;;;11.20;99.90;;;;;;5050579;28;20021;-37
2023/04/26 06:12:47;;;;;;;5.03;2.72;;;11.20;99.90;;;;;;5050752;28;20037;-42
2023/04/26 06:15:13;;;;;;;6.05;2.70;;;11.20;99.90;;;;;;5050873;28;20029;-40
2023/04/26 06:17:40;;;;;;;4.43;3.13;;;11.20;99.90;;;;;;5049978;28;20118;-41
2023/04/26 06:20:08;;;;;;;6.15;3.30;;;11.20;99.90;;;;;;5050640;28;20025;-43
2023/04/26 06:22:35;;;;;;;5.93;3.10;;;11.20;99.90;;;;;;5053162;28;20487;-43
2023/04/26 06:25:00;;;;;;;5.28;3.20;;;11.20;99.90;;;;;;5054934;28;20021;-43
2023/04/26 06:27:26;;;;;;;4.47;2.83;;;11.20;99.90;;;;;;5053897;28;20028;-43
2023/04/26 06:29:52;;;;;;;5.78;3.30;;;11.20;99.90;;;;;;5054345;28;20066;-44
2023/04/26 06:32:17;;;;;;;6.20;3.22;;;11.20;99.90;;;;;;5054458;28;20060;-42
2023/04/26 06:34:44;;;;;;;7.35;3.72;;;11.20;99.90;;;;;;5054552;28;20068;-40
2023/04/26 06:37:10;;;;;;;6.25;3.20;;;11.10;99.90;;;;;;5054100;28;20607;-40
2023/04/26 06:39:37;;;;;;;5.78;3.58;;;11.00;99.90;;;;;;5054203;28;20036;-44
2023/04/26 06:42:03;;;;;;;4.95;3.45;;;11.10;99.90;;;;;;5054110;28;20033;-45
2023/04/26 06:44:29;;;;;;;4.68;3.45;;;11.10;99.90;;;;;;5054008;28;20021;-42
2023/04/26 06:46:55;;;;;;;7.18;3.72;;;11.00;99.90;;;;;;5053596;28;20021;-43
2023/04/26 06:49:21;;;;;;;6.47;2.92;;;11.10;99.90;;;;;;5053957;28;20040;-44
2023/04/26 06:51:47;;;;;;;6.85;3.67;;;11.10;99.90;;;;;;5053876;28;20021;-39
2023/04/26 06:54:12;;;;;;;11.07;4.70;;;11.10;99.90;;;;;;5053950;28;20119;-45
2023/04/26 06:56:38;;;;;;;7.03;4.00;;;11.10;99.90;;;;;;5053339;28;20043;-45
2023/04/26 06:59:05;;;;;;;7.15;3.75;;;11.10;99.90;;;;;;5053851;28;20029;-43
2023/04/26 07:01:32;;;;;;;8.85;3.28;;;11.10;99.90;;;;;;5055287;28;20025;-45
2023/04/26 07:04:01;;;;;;;8.95;3.75;;;11.20;99.90;;;;;;5053413;28;20487;-44
2023/04/26 07:06:27;;;;;;;6.03;3.50;;;11.20;99.90;;;;;;5053143;28;20061;-43
2023/04/26 07:08:53;;;;;;;7.85;3.58;;;11.20;99.90;;;;;;5053671;28;20017;-44
2023/04/26 07:11:19;;;;;;;9.63;3.58;;;11.20;99.90;;;;;;5053584;28;20029;-43
2023/04/26 07:13:45;;;;;;;4.97;3.10;;;11.20;99.90;;;;;;5053345;28;20028;-43
2023/04/26 07:16:11;;;;;;;6.70;3.17;;;11.30;99.90;;;;;;5052840;28;20434;-43
2023/04/26 07:18:37;;;;;;;8.02;3.47;;;11.30;99.90;;;;;;5053391;28;20532;-43
2023/04/26 07:21:03;;;;;;;6.43;2.78;;;11.30;99.90;;;;;;5053409;28;20032;-43
2023/04/26 07:23:28;;;;;;;5.32;2.53;;;11.30;99.90;;;;;;5053228;28;20116;-43
2023/04/26 07:25:54;;;;;;;4.82;2.75;;;11.30;99.90;;;;;;5053164;28;20103;-43
2023/04/26 07:28:20;;;;;;;6.07;2.63;;;11.30;99.90;;;;;;5053783;28;20104;-43
2023/04/26 07:30:46;;;;;;;5.88;2.78;;;11.40;99.90;;;;;;5053251;28;20078;-39
2023/04/26 07:33:11;;;;;;;6.18;2.70;;;11.40;99.90;;;;;;5051980;28;20028;-40
2023/04/26 07:35:37;;;;;;;4.38;2.65;;;11.40;99.90;;;;;;5053061;28;20514;-39
2023/04/26 07:38:03;;;;;;;4.97;2.70;;;11.40;99.90;;;;;;5052757;28;20486;-44
2023/04/26 07:40:30;;;;;;;5.40;2.85;;;11.40;99.90;;;;;;5054664;28;20028;-43
2023/04/26 07:42:56;;;;;;;5.63;2.45;;;11.40;99.90;;;;;;5052713;28;20021;-38
2023/04/26 07:45:21;;;;;;;6.75;2.75;;;11.50;99.90;;;;;;5052862;28;20028;-43
2023/04/26 07:47:47;;;;;;;6.93;3.30;;;11.50;99.90;;;;;;5052278;28;20115;-43
2023/04/26 07:50:12;;;;;;;6.80;2.63;;;11.50;99.90;;;;;;5052840;28;20032;-43
2023/04/26 07:52:38;;;;;;;7.07;2.65;;;11.50;99.90;;;;;;5052783;28;20108;-43
2023/04/26 07:55:05;;;;;;;6.50;2.30;;;11.50;99.90;;;;;;5052808;28;20039;-41
2023/04/26 07:57:31;;;;;;;7.20;2.75;;;11.50;99.90;;;;;;5051948;28;20096;-41
2023/04/26 07:59:57;;;;;;;6.60;3.10;;;11.50;99.90;;;;;;5052598;28;20064;-38
2023/04/26 08:02:22;;;;;;;6.57;2.95;;;11.60;99.90;;;;;;5052545;28;20025;-45
2023/04/26 08:04:53;;;;;;;8.00;2.60;;;11.60;99.90;;;;;;5052503;28;20043;-45
2023/04/26 08:07:20;;;;;;;4.68;2.30;;;11.60;99.90;;;;;;5052498;28;20024;-45
2023/04/26 08:09:47;;;;;;;5.38;2.22;;;11.60;99.90;;;;;;5052598;28;20045;-45
2023/04/26 08:12:13;;;;;;;6.88;2.63;;;11.60;99.90;;;;;;5053930;28;20036;-43
2023/04/26 08:14:39;;;;;;;7.32;2.60;;;11.60;99.90;;;;;;5052371;28;20029;-45
2023/04/26 08:17:08;;;;;;;7.47;2.40;;;11.60;99.90;;;;;;5052655;28;20028;-43
2023/04/26 08:19:35;;;;;;;6.57;2.20;;;11.60;99.90;;;;;;5052288;28;20382;-43
2023/04/26 08:22:01;;;;;;;5.63;1.90;;;11.60;99.90;;;;;;5052810;28;20025;-43
2023/04/26 08:24:26;;;;;;;5.30;2.25;;;11.70;99.90;;;;;;5052070;28;20029;-44
2023/04/26 08:26:52;;;;;;;7.40;2.75;;;11.70;99.90;;;;;;5050435;28;20029;-43
2023/04/26 08:29:18;;;;;;;5.53;2.80;;;11.70;99.90;;;;;;5053156;28;20021;-43
2023/04/26 08:31:43;;;;;;;5.07;2.38;;;11.70;99.90;;;;;;5052620;28;20025;-43
2023/04/26 08:34:10;;;;;;;6.93;2.80;;;11.70;99.90;;;;;;5051988;28;20021;-43
2023/04/26 08:36:36;;;;;;;6.40;2.55;;;11.70;99.90;;;;;;5051434;28;20494;-43
2023/04/26 08:39:03;;;;;;;9.20;2.70;;;11.70;99.90;;;;;;5050493;28;20044;-43
2023/04/26 08:41:34;;;;;;;9.25;2.53;;;11.70;99.90;;;;;;5051870;28;20498;-43
2023/04/26 08:44:03;;;;;;;5.07;2.50;;;11.70;99.90;;;;;;5051384;28;20025;-43
2023/04/26 08:46:40;;;;;;;12.68;3.47;;;11.70;99.90;;;;;;5051112;28;20140;-44
2023/04/26 08:49:26;;;;;;;11.60;3.40;;;11.60;99.90;;;;;;5052358;28;20024;-44
2023/04/26 08:51:53;;;;;;;6.97;3.25;;;11.60;99.90;;;;;;5051627;28;20029;-44
2023/04/26 08:54:20;;;;;;;7.25;2.60;;;11.60;99.90;;;;;;5053099;28;20025;-44
2023/04/26 08:56:46;;;;;;;12.82;3.20;;;11.60;99.90;;;;;;5051215;28;20048;-44
2023/04/26 08:59:12;;;;;;;7.28;2.83;;;11.60;99.90;;;;;;5053451;28;20025;-44
2023/04/26 09:01:40;;;;;;;8.10;3.30;;;11.60;99.90;;;;;;5052506;28;20066;-43
2023/04/26 09:04:06;;;;;;;9.35;2.92;;;11.60;99.90;;;;;;5053248;28;20040;-45
2023/04/26 09:06:32;;;;;;;8.93;3.03;;;11.60;99.90;;;;;;5050988;28;20029;-46
2023/04/26 09:09:03;;;;;;;5.70;2.38;;;11.60;99.90;;;;;;5053890;28;20017;-46
2023/04/26 09:11:29;;;;;;;4.93;2.20;;;11.60;99.90;;;;;;5052567;28;20017;-44
2023/04/26 09:13:55;;;;;;;8.25;2.70;;;11.70;99.90;;;;;;5051656;28;20032;-44
2023/04/26 09:16:35;;;;;;;5.43;2.42;;;11.70;99.90;;;;;;5050605;28;20033;-44
2023/04/26 09:19:01;;;;;;;5.22;2.00;;;11.70;99.90;;;;;;5051026;28;20512;-44
2023/04/26 09:21:28;;;;;;;5.85;2.40;;;11.70;99.90;;;;;;5050857;28;20461;-42
2023/04/26 09:24:03;;;;;;;7.78;2.63;;;11.70;99.90;;;;;;5051178;28;20079;-43
2023/04/26 09:26:29;;;;;;;8.02;2.53;;;11.80;99.90;;;;;;5050632;28;20021;-46
2023/04/26 09:29:15;;;;;;;5.43;2.45;;;11.80;99.90;;;;;;5051375;28;20518;-43
2023/04/26 09:31:45;;;;;;;9.38;2.35;;;11.80;99.90;;;;;;5050861;28;20029;-42
2023/04/26 09:34:13;;;;;;;5.05;2.10;;;11.80;99.90;;;;;;5051041;28;20037;-44
2023/04/26 09:36:52;;;;;;;6.25;2.30;;;11.80;99.90;;;;;;5050419;28;20048;-43
2023/04/26 09:39:40;;;;;;;7.38;2.40;;;11.80;99.90;;;;;;5049820;28;20025;-43
2023/04/26 09:42:07;;;;;;;4.43;2.33;;;11.80;99.90;;;;;;5050801;28;20108;-47
2023/04/26 09:44:33;;;;;;;6.30;2.30;;;11.80;99.90;;;;;;5050816;28;20033;-44
2023/04/26 09:47:00;;;;;;;5.20;2.17;;;11.80;99.90;;;;;;5050449;28;20098;-47
2023/04/26 09:49:32;;;;;;;5.13;1.92;;;11.80;99.90;;;;;;5051373;28;20104;-45
2023/04/26 09:52:03;;;;;;;8.38;2.00;;;11.80;99.90;;;;;;5051571;28;20067;-44
2023/04/26 09:54:43;;;;;;;4.78;1.90;;;11.80;99.90;;;;;;5051032;28;20017;-44
2023/04/26 09:57:11;;;;;;;7.43;2.10;;;11.80;99.90;;;;;;5052787;28;20021;-44
2023/04/26 09:59:49;;;;;;;6.10;2.17;;;11.90;99.90;;;;;;5055525;28;20045;-44
2023/04/26 10:02:21;;;;;;;4.72;2.40;;;11.90;99.90;;;;;;5054700;28;20021;-44
2023/04/26 10:04:52;;;;;;;5.20;2.05;;;11.90;99.90;;;;;;5055247;28;20100;-46
2023/04/26 10:07:20;;;;;;;3.95;1.80;;;11.80;99.90;;;;;;5054718;28;20013;-44
2023/04/26 10:09:46;;;;;;;6.63;2.05;;;11.90;99.90;;;;;;5055035;28;20104;-41
2023/04/26 10:12:14;;;;;;;4.15;1.90;;;11.80;99.90;;;;;;5055233;28;20033;-44
2023/04/26 10:14:40;;;;;;;4.57;2.10;;;11.90;99.90;;;;;;5055116;28;20025;-44
2023/04/26 10:17:06;;;;;;;6.30;1.88;;;11.90;99.90;;;;;;5054578;28;20035;-44
2023/04/26 10:19:34;;;;;;;8.45;2.13;;;11.90;99.90;;;;;;5056046;28;20029;-44
2023/04/26 10:22:10;;;;;;;5.47;2.10;;;11.80;99.90;;;;;;5055457;28;20061;-44
2023/04/26 10:24:36;;;;;;;5.35;1.88;;;11.90;99.90;;;;;;5055626;28;20051;-44
2023/04/26 10:27:03;;;;;;;4.30;1.60;;;11.90;99.90;;;;;;5054830;28;20495;-44
2023/04/26 10:29:53;;;;;;;5.40;1.90;;;11.90;99.90;;;;;;5055079;28;20021;-44
2023/04/26 10:32:22;;;;;;;3.38;1.73;;;11.90;99.90;;;;;;5054699;28;20691;-44
2023/04/26 10:35:07;;;;;;;5.60;1.88;;;11.90;99.90;;;;;;5055010;28;20068;-44
2023/04/26 10:37:32;;;;;;;3.40;1.90;;;11.90;99.90;;;;;;5054439;28;20032;-46
2023/04/26 10:40:39;;;;;;;4.75;1.60;;;11.90;99.90;;;;;;5055271;28;20039;-44
2023/04/26 10:43:12;;;;;;;4.43;1.83;;;11.90;99.90;;;;;;5054797;28;20033;-44
2023/04/26 10:45:39;;;;;;;4.68;1.80;;;11.90;99.90;;;;;;5054859;28;20024;-46
2023/04/26 10:48:18;;;;;;;5.45;1.48;;;12.00;99.90;;;;;;5054486;28;20383;-44
2023/04/26 10:51:07;;;;;;;3.45;1.83;;;12.00;99.90;;;;;;5055282;28;20021;-44
2023/04/26 10:53:53;;;;;;;4.15;1.98;;;12.00;99.90;;;;;;5055066;28;20029;-44
2023/04/26 10:56:30;;;;;;;3.00;1.58;;;11.90;99.90;;;;;;5049863;28;20419;-46
2023/04/26 10:59:14;;;;;;;4.93;1.73;;;12.00;99.90;;;;;;5055804;28;20487;-44
2023/04/26 11:01:40;;;;;;;5.80;1.98;;;12.00;99.90;;;;;;5054188;28;20033;-44
2023/04/26 11:04:10;;;;;;;3.53;1.40;;;12.00;99.90;;;;;;5053756;28;20060;-43
2023/04/26 11:06:56;;;;;;;6.05;1.83;;;12.00;99.90;;;;;;5053306;28;20033;-44
2023/04/26 11:09:38;;;;;;;3.90;1.50;;;12.00;99.90;;;;;;5053646;28;20017;-44
2023/04/26 11:12:14;;;;;;;3.75;1.35;;;12.00;99.90;;;;;;5053786;28;20155;-44
2023/04/26 11:14:43;;;;;;;2.70;1.45;;;12.00;99.90;;;;;;5053990;28;20109;-43
2023/04/26 11:17:09;;;;;;;4.25;1.98;;;12.00;99.90;;;;;;5053480;28;20028;-42
2023/04/26 11:19:35;;;;;;;2.30;1.48;;;12.00;99.90;;;;;;5053030;28;20029;-45
2023/04/26 11:22:02;;;;;;;2.97;1.73;;;12.00;99.90;;;;;;5054070;28;20051;-44
2023/04/26 11:24:30;;;;;;;3.13;1.70;;;12.00;99.90;;;;;;5053447;28;20017;-44
2023/04/26 11:26:57;;;;;;;4.25;1.75;;;12.00;99.90;;;;;;5052774;28;20064;-44
2023/04/26 11:29:23;;;;;;;4.03;1.80;;;12.00;99.90;;;;;;5053228;28;20017;-45
2023/04/26 11:31:56;;;;;;;6.18;1.90;;;12.00;99.90;;;;;;5053258;28;20032;-43
2023/04/26 11:34:34;;;;;;;4.72;1.58;;;12.00;99.90;;;;;;5053253;28;20024;-44
2023/04/26 11:37:01;;;;;;;4.85;1.98;;;12.00;99.90;;;;;;5053082;28;20111;-43
2023/04/26 11:39:27;;;;;;;2.95;1.65;;;12.00;99.90;;;;;;5054140;28;20013;-45
2023/04/26 11:42:12;;;;;;;4.10;1.50;;;12.00;99.90;;;;;;5053385;28;20028;-45
2023/04/26 11:44:39;;;;;;;5.28;1.70;;;12.00;99.90;;;;;;5053059;28;20029;-45
2023/04/26 11:47:06;;;;;;;3.38;1.33;;;12.00;99.90;;;;;;5052715;28;20021;-47
2023/04/26 11:49:34;;;;;;;5.15;1.75;;;11.90;99.90;;;;;;5053437;28;20036;-44
2023/04/26 11:52:01;;;;;;;2.72;1.40;;;11.90;99.90;;;;;;5053010;28;20017;-44
2023/04/26 11:54:34;;;;;;;3.50;1.50;;;12.00;99.90;;;;;;5052955;28;20102;-45
2023/04/26 11:57:11;;;;;;;3.05;1.60;;;12.00;99.90;;;;;;5052261;28;20195;-47
2023/04/26 11:59:37;;;;;;;4.28;1.90;;;12.00;99.90;;;;;;5054246;28;20636;-44
2023/04/26 12:02:06;;;;;;;4.65;1.50;;;12.00;99.90;;;;;;5053149;28;20116;-45
2023/04/26 12:04:32;;;;;;;2.63;1.30;;;12.00;99.90;;;;;;5053073;28;20443;-42
2023/04/26 12:06:58;;;;;;;3.17;1.40;;;12.00;99.90;;;;;;5053507;28;20037;-44
2023/04/26 12:09:28;;;;;;;5.40;1.60;;;12.00;99.90;;;;;;5054157;28;20136;-46
2023/04/26 12:11:58;;;;;;;3.45;1.58;;;12.00;99.90;;;;;;5054291;28;20024;-46
2023/04/26 12:14:30;;;;;;;4.85;1.48;;;12.10;99.90;;;;;;5053642;28;20107;-43
2023/04/26 12:17:01;;;;;;;4.13;1.52;;;12.00;99.90;;;;;;5052577;28;20126;-44
2023/04/26 12:19:27;;;;;;;2.25;1.25;;;12.00;99.90;;;;;;5053182;28;20023;-44
2023/04/26 12:21:54;;;;;;;4.57;1.40;;;12.00;99.90;;;;;;5052764;28;20033;-44
2023/04/26 12:24:33;;;;;;;1.85;1.20;;;12.10;99.90;;;;;;5052539;28;20021;-44
2023/04/26 12:27:07;;;;;;;3.97;1.38;;;12.10;99.90;;;;;;5052454;28;20025;-44
2023/04/26 12:29:33;;;;;;;3.13;1.30;;;12.10;99.90;;;;;;5053669;28;20056;-43
2023/04/26 12:32:00;;;;;;;5.85;1.63;;;12.00;99.90;;;;;;5051044;28;20029;-43
2023/04/26 12:34:25;;;;;;;3.53;1.30;;;12.00;99.90;;;;;;5052335;28;20029;-44
2023/04/26 12:36:51;;;;;;;2.20;1.40;;;12.10;99.90;;;;;;5051896;28;20489;-47
2023/04/26 12:39:17;;;;;;;3.17;1.25;;;12.10;99.90;;;;;;5052082;28;20032;-44
2023/04/26 12:41:43;;;;;;;3.92;1.40;;;12.10;99.90;;;;;;5052216;28;20078;-47
2023/04/26 12:44:10;;;;;;;3.45;1.17;;;12.10;99.90;;;;;;5051914;28;20025;-44
2023/04/26 12:46:36;;;;;;;3.97;1.55;;;12.20;99.90;;;;;;5051280;28;20025;-44
2023/04/26 12:49:02;;;;;;;2.42;1.08;;;12.20;99.90;;;;;;5051740;28;20475;-44